Time;durP1;ratioP1;P1;durP2;ratioP2;P2;SDS_P1;SDS_P2;PMS_P1;PMS_P2;Temp;Humidity;BMP_temperature;BMP_pressure;BME280_temperature;BME280_humidity;BME280_pressure;Samples;Min_cycle;Max_cycle;Signal;HPM_P1;HPM_P2
2021/08/03 00:01:24;;;;;;;;;6.00;5.00;;;;;19.83;63.13;100644.00;5020442;28;45917;-76
2021/08/03 00:03:56;;;;;;;;;3.00;2.75;;;;;19.85;62.98;100641.19;5022109;28;45574;-80
2021/08/03 00:06:25;;;;;;;;;6.00;5.25;;;;;19.83;63.35;100641.34;5022878;28;45758;-82
2021/08/03 00:12:16;;;;;;;;;5.75;4.50;;;;;19.80;63.37;100639.03;5014229;28;45819;-79
2021/08/03 00:14:47;;;;;;;;;5.25;5.25;;;;;19.84;63.13;100650.16;5014320;28;45655;-75
2021/08/03 00:17:16;;;;;;;;;5.00;5.00;;;;;19.81;63.29;100648.66;5008948;28;45996;-84
2021/08/03 00:19:42;;;;;;;;;5.00;4.25;;;;;19.80;63.54;100649.66;5014056;28;46384;-77
2021/08/03 00:22:08;;;;;;;;;4.00;3.75;;;;;19.75;63.15;100637.88;5014024;28;46527;-77
2021/08/03 00:24:35;;;;;;;;;4.50;4.50;;;;;19.70;63.37;100627.75;5012763;28;45603;-83
2021/08/03 00:27:02;;;;;;;;;5.00;5.00;;;;;19.70;63.10;100630.41;5014694;28;45655;-79
2021/08/03 00:29:28;;;;;;;;;5.25;5.00;;;;;19.66;63.29;100627.22;5014395;28;46279;-80
2021/08/03 00:31:55;;;;;;;;;5.25;5.00;;;;;19.64;63.23;100631.06;5014602;28;46202;-79
2021/08/03 00:34:21;;;;;;;;;5.25;5.25;;;;;19.54;63.26;100615.25;5014363;28;45676;-77
2021/08/03 00:36:46;;;;;;;;;5.00;4.25;;;;;19.57;63.19;100630.06;5014461;28;45552;-79
2021/08/03 00:42:33;;;;;;;;;6.75;6.25;;;;;19.45;63.26;100618.94;5014286;28;45572;-79
2021/08/03 00:44:59;;;;;;;;;5.75;5.75;;;;;19.47;63.83;100618.78;5015856;28;45588;-80
2021/08/03 00:47:24;;;;;;;;;5.25;5.25;;;;;19.39;63.88;100608.94;5015734;28;45594;-80
2021/08/03 00:49:50;;;;;;;;;5.25;5.25;;;;;19.41;63.99;100609.59;5016666;28;45574;-79
2021/08/03 00:52:16;;;;;;;;;7.50;5.25;;;;;19.39;63.84;100614.25;5018922;28;46332;-79
2021/08/03 00:54:43;;;;;;;;;10.25;9.25;;;;;19.37;64.01;100613.59;5018362;28;45804;-82
2021/08/03 00:57:12;;;;;;;;;9.50;9.25;;;;;19.28;63.89;100602.13;5017643;28;45487;-80
2021/08/03 00:59:38;;;;;;;;;9.25;9.00;;;;;19.30;64.13;100612.59;5017979;28;45624;-83
2021/08/03 01:02:05;;;;;;;;;8.00;7.00;;;;;19.27;64.03;100613.72;5017903;28;45968;-82
2021/08/03 01:04:32;;;;;;;;;7.00;5.25;;;;;19.24;63.72;100605.28;5017946;28;45544;-79
2021/08/03 01:07:16;;;;;;;;;8.25;7.25;;;;;19.26;63.80;100612.09;5018760;28;45563;-82
2021/08/03 01:13:35;;;;;;;;;6.50;6.25;;;;;19.21;64.42;100605.63;5018696;28;46165;-81
2021/08/03 01:16:17;;;;;;;;;7.25;7.00;;;;;19.09;64.55;100591.81;5000188;28;45716;-76
2021/08/03 01:18:49;;;;;;;;;7.75;6.75;;;;;19.11;64.61;100603.09;5017896;28;45720;-80
2021/08/03 01:21:36;;;;;;;;;7.00;7.00;;;;;19.08;65.00;100595.47;5017455;28;45492;-77
2021/08/03 01:24:30;;;;;;;;;7.75;7.50;;;;;19.06;64.58;100591.28;5017382;28;46305;-80
2021/08/03 01:27:12;;;;;;;;;7.00;5.75;;;;;19.04;64.73;100593.31;5016954;28;45738;-78
2021/08/03 01:29:40;;;;;;;;;9.00;9.00;;;;;19.01;64.91;100589.13;5017514;28;45529;-77
2021/08/03 01:32:09;;;;;;;;;6.25;6.25;;;;;19.00;64.98;100584.81;5017350;28;45551;-74
2021/08/03 01:34:40;;;;;;;;;7.00;6.00;;;;;19.00;64.95;100586.66;5017374;28;46219;-78
2021/08/03 01:37:06;;;;;;;;;6.50;6.50;;;;;18.94;65.10;100576.69;5017649;28;45712;-79
2021/08/03 01:39:36;;;;;;;;;7.25;7.25;;;;;18.95;65.49;100578.38;5017893;28;45675;-78
2021/08/03 01:42:05;;;;;;;;;6.25;6.25;;;;;18.90;65.10;100573.53;5018042;28;47410;-78
2021/08/03 01:44:33;;;;;;;;;7.00;6.00;;;;;18.90;64.79;100570.88;5018432;28;46444;-77
2021/08/03 01:47:01;;;;;;;;;7.25;7.25;;;;;18.89;65.41;100569.22;5020983;28;45613;-77
2021/08/03 01:49:35;;;;;;;;;9.25;7.75;;;;;18.78;65.57;100549.13;5021147;28;45863;-77
2021/08/03 01:52:02;;;;;;;;;6.75;6.50;;;;;18.88;65.22;100564.91;5023328;28;45766;-77
2021/08/03 01:54:29;;;;;;;;;8.50;7.50;;;;;18.87;65.65;100565.91;5021022;28;45656;-80
2021/08/03 01:56:55;;;;;;;;;7.00;7.00;;;;;18.86;65.28;100566.88;5022100;28;45767;-78
2021/08/03 01:59:22;;;;;;;;;8.50;7.75;;;;;18.85;65.02;100563.38;5023737;28;45504;-76
2021/08/03 02:01:49;;;;;;;;;7.75;7.00;;;;;18.86;65.69;100564.22;5023107;28;46640;-79
2021/08/03 02:04:16;;;;;;;;;7.50;7.50;;;;;18.85;65.39;100571.34;5018246;28;46199;-78
2021/08/03 02:06:42;;;;;;;;;9.00;8.25;;;;;18.78;65.74;100570.38;5020601;28;45542;-77
2021/08/03 02:09:09;;;;;;;;;7.75;7.50;;;;;18.81;65.57;100574.50;5016377;28;45565;-79
2021/08/03 02:11:36;;;;;;;;;7.50;7.00;;;;;18.80;66.03;100578.16;5016141;28;45449;-79
2021/08/03 02:14:02;;;;;;;;;6.75;6.00;;;;;18.75;65.73;100575.16;5015682;28;46999;-76
2021/08/03 02:16:27;;;;;;;;;8.75;7.75;;;;;18.79;65.79;100592.41;5016417;28;45775;-78
2021/08/03 02:18:53;;;;;;;;;7.75;6.75;;;;;18.78;65.98;100578.34;5016441;28;45755;-77
2021/08/03 02:21:22;;;;;;;;;8.75;8.00;;;;;18.65;65.78;100570.00;5016344;28;46466;-77
2021/08/03 02:23:49;;;;;;;;;6.00;6.00;;;;;18.78;66.09;100586.28;5016197;28;46413;-77
2021/08/03 02:26:14;;;;;;;;;8.25;8.00;;;;;18.78;65.59;100583.63;5016347;28;45659;-82
2021/08/03 02:28:40;;;;;;;;;7.25;7.25;;;;;18.74;66.14;100584.09;5016399;28;45477;-79
2021/08/03 02:31:25;;;;;;;;;7.75;6.50;;;;;18.80;65.93;100583.47;5016151;28;46666;-83
2021/08/03 02:33:57;;;;;;;;;8.00;7.25;;;;;18.80;66.30;100578.97;5015828;28;46165;-83
2021/08/03 02:36:28;;;;;;;;;6.00;5.25;;;;;18.73;66.03;100562.03;5016321;28;45516;-76
2021/08/03 02:38:58;;;;;;;;;7.25;7.00;;;;;18.80;66.55;100578.97;5015678;28;45619;-77
2021/08/03 02:41:25;;;;;;;;;7.00;6.25;;;;;18.76;66.03;100566.19;5015962;28;46615;-77
2021/08/03 02:43:52;;;;;;;;;7.50;7.00;;;;;18.71;66.23;100560.56;5015766;28;45844;-82
2021/08/03 02:46:22;;;;;;;;;7.50;7.00;;;;;18.68;66.65;100550.25;5015964;28;45785;-87
2021/08/03 02:49:00;;;;;;;;;7.00;6.00;;;;;18.77;66.48;100563.41;5016159;28;45830;-82
2021/08/03 02:51:27;;;;;;;;;8.00;7.00;;;;;18.76;66.72;100566.19;5016412;28;45520;-85
2021/08/03 02:53:55;;;;;;;;;9.25;8.75;;;;;18.75;66.62;100572.50;5017032;28;46122;-81
2021/08/03 02:56:23;;;;;;;;;8.00;8.00;;;;;18.75;66.96;100572.50;5016412;28;45622;-86
2021/08/03 02:58:48;;;;;;;;;9.25;8.00;;;;;18.72;66.90;100570.19;5016082;28;45449;-82
2021/08/03 03:01:15;;;;;;;;;8.50;8.00;;;;;18.70;66.99;100570.34;5015637;28;45500;-85
2021/08/03 03:03:45;;;;;;;;;8.50;7.00;;;;;18.68;66.85;100567.00;4997423;28;46387;-81
2021/08/03 03:06:13;;;;;;;;;9.00;8.75;;;;;18.60;67.36;100561.69;5015312;28;45700;-80
2021/08/03 03:08:43;;;;;;;;;11.00;10.75;;;;;18.63;67.31;100566.66;5015528;28;45453;-79
2021/08/03 03:11:11;;;;;;;;;10.50;9.50;;;;;18.53;67.30;100552.66;5015625;28;45611;-85
2021/08/03 03:13:56;;;;;;;;;7.00;7.00;;;;;18.55;68.16;100556.03;5014424;28;45959;-85
2021/08/03 03:16:23;;;;;;;;;10.00;10.00;;;;;18.51;67.71;100556.50;5015646;28;45738;-85
2021/08/03 03:18:50;;;;;;;;;7.00;7.00;;;;;18.49;68.11;100550.50;5015349;28;45575;-86
2021/08/03 03:21:21;;;;;;;;;7.00;5.00;;;;;18.47;67.77;100555.97;5015492;28;45510;-85
2021/08/03 03:30:14;;;;;;;;;8.00;8.00;;;;;18.50;67.50;100544.22;5023308;28;45646;-79
2021/08/03 03:32:41;;;;;;;;;7.50;7.50;;;;;18.50;67.33;100553.00;5020250;28;47492;-82
2021/08/03 03:35:08;;;;;;;;;11.25;9.00;;;;;18.52;67.76;100539.56;5030147;28;47328;-83
2021/08/03 03:37:34;;;;;;;;;9.00;9.00;;;;;18.52;67.63;100544.88;5031278;28;45378;-81
2021/08/03 03:39:59;;;;;;;;;7.75;6.75;;;;;18.52;67.17;100542.22;5028653;28;45477;-83
2021/08/03 03:42:31;;;;;;;;;8.75;8.00;;;;;18.44;67.46;100527.94;5025196;28;45792;-86
2021/08/03 03:44:59;;;;;;;;;7.00;7.00;;;;;18.52;67.56;100550.16;5023011;28;46946;-83
2021/08/03 03:47:30;;;;;;;;;7.50;6.75;;;;;18.45;67.60;100542.03;5021597;28;45486;-78
2021/08/03 03:50:05;;;;;;;;;7.50;7.00;;;;;18.46;67.62;100555.13;5019723;28;45926;-81
2021/08/03 03:52:38;;;;;;;;;8.00;7.00;;;;;18.45;67.05;100555.31;5019268;28;46774;-82
2021/08/03 03:55:06;;;;;;;;;10.75;9.50;;;;;18.41;67.42;100552.13;5023543;28;46445;-82
2021/08/03 03:57:31;;;;;;;;;10.00;9.00;;;;;18.37;67.59;100548.16;5022983;28;45728;-77
2021/08/03 03:59:59;;;;;;;;;8.50;8.25;;;;;18.27;67.21;100544.78;5023233;28;45688;-80
2021/08/03 04:02:28;;;;;;;;;9.25;9.00;;;;;18.32;67.33;100555.75;5023472;28;46398;-83
2021/08/03 04:04:57;;;;;;;;;10.00;9.50;;;;;18.30;67.42;100549.78;5019308;28;46529;-82
2021/08/03 04:07:22;;;;;;;;;12.00;10.25;;;;;18.30;67.56;100556.94;5014858;28;45631;-79
2021/08/03 04:09:47;;;;;;;;;16.00;16.00;;;;;18.30;67.75;100562.22;5015022;28;45558;-80
2021/08/03 04:12:13;;;;;;;;;22.00;19.50;;;;;18.27;67.39;100558.06;5016339;28;46277;-78
2021/08/03 04:14:41;;;;;;;;;24.00;20.50;;;;;18.21;67.78;100544.59;5016390;28;46049;-80
2021/08/03 04:17:08;;;;;;;;;19.25;17.25;;;;;18.26;67.89;100561.69;5014834;28;45989;-77
2021/08/03 04:19:33;;;;;;;;;15.25;14.50;;;;;18.27;67.32;100570.50;5014750;28;45869;-78
2021/08/03 04:21:59;;;;;;;;;14.75;13.00;;;;;18.16;67.94;100558.34;5014648;28;47383;-78
2021/08/03 04:24:24;;;;;;;;;12.75;12.25;;;;;18.20;67.50;100557.03;5015709;28;46463;-81
2021/08/03 04:26:50;;;;;;;;;11.50;11.00;;;;;18.07;67.40;100545.22;5018613;28;45594;-81
2021/08/03 04:29:15;;;;;;;;;11.00;10.00;;;;;18.21;67.46;100565.81;5018286;28;45674;-82
2021/08/03 04:31:41;;;;;;;;;9.00;8.75;;;;;18.18;67.71;100568.78;5018480;28;46461;-84
2021/08/03 04:34:06;;;;;;;;;10.25;9.00;;;;;18.15;67.78;100567.28;5018234;28;45718;-81
2021/08/03 04:36:32;;;;;;;;;6.50;6.25;;;;;18.15;67.75;100556.69;5018156;28;45611;-85
2021/08/03 04:38:57;;;;;;;;;8.25;7.25;;;;;18.14;67.38;100562.16;5017839;28;45595;-82
2021/08/03 04:44:44;;;;;;;;;9.75;8.75;;;;;18.09;67.90;100553.81;5017402;28;45541;-80
2021/08/03 04:47:10;;;;;;;;;8.00;7.00;;;;;17.86;67.53;100508.50;5017435;28;45613;-81
2021/08/03 04:49:35;;;;;;;;;9.75;8.50;;;;;18.08;68.02;100539.75;5017770;28;45661;-82
2021/08/03 04:52:01;;;;;;;;;8.75;8.00;;;;;18.00;67.84;100519.31;5017567;28;46747;-77
2021/08/03 04:54:26;;;;;;;;;9.00;9.00;;;;;18.10;67.75;100536.94;5017327;28;45825;-80
2021/08/03 05:00:29;;;;;;;;;2.00;2.00;;;;;18.15;67.47;100547.88;5009180;28;45755;-84
2021/08/03 05:02:54;;;;;;;;;1.75;1.50;;;;;18.15;67.53;100555.84;5018331;28;46295;-80
2021/08/03 05:05:20;;;;;;;;;4.00;4.00;;;;;18.10;67.19;100543.06;5017833;28;46028;-81
2021/08/03 05:07:58;;;;;;;;;3.00;2.25;;;;;18.15;67.31;100551.38;5017851;28;45740;-81
2021/08/03 05:10:25;;;;;;;;;3.25;2.25;;;;;18.11;66.68;100536.78;5018184;28;45833;-80
2021/08/03 05:12:50;;;;;;;;;2.50;2.00;;;;;18.16;66.43;100546.91;5018447;28;45634;-81
2021/08/03 05:15:16;;;;;;;;;6.50;5.75;;;;;18.16;66.93;100544.25;5017644;28;46905;-76
2021/08/03 05:17:42;;;;;;;;;2.25;2.00;;;;;18.12;66.62;100530.47;5017767;28;45740;-89
2021/08/03 05:20:08;;;;;;;;;1.50;1.50;;;;;18.22;66.19;100541.78;5018776;28;45579;-82
2021/08/03 05:22:34;;;;;;;;;2.00;2.00;;;;;18.24;66.31;100547.78;5017245;28;45485;-84
2021/08/03 05:24:59;;;;;;;;;1.75;1.75;;;;;18.24;65.96;100539.81;5018356;28;46236;-78
2021/08/03 05:27:25;;;;;;;;;2.00;2.00;;;;;18.25;66.45;100545.94;5017687;28;45705;-81
2021/08/03 05:29:51;;;;;;;;;3.00;2.25;;;;;18.22;66.02;100544.44;5018043;28;45566;-79
2021/08/03 05:32:16;;;;;;;;;3.00;2.75;;;;;18.27;66.26;100549.28;5018582;28;46475;-86
2021/08/03 05:34:42;;;;;;;;;6.25;4.50;;;;;18.28;66.30;100551.78;5018417;28;46284;-87
2021/08/03 05:37:07;;;;;;;;;5.25;4.00;;;;;18.26;65.82;100553.75;5016942;28;45603;-81
2021/08/03 05:39:33;;;;;;;;;2.00;2.00;;;;;18.22;66.09;100546.25;5018091;28;45840;-78
2021/08/03 05:45:22;;;;;;;;;2.25;2.00;;;;;18.30;66.19;100543.66;5019083;28;45840;-77
2021/08/03 05:47:47;;;;;;;;;5.00;4.00;;;;;18.36;65.86;100559.75;5018051;28;45662;-77
2021/08/03 05:50:13;;;;;;;;;2.25;2.00;;;;;18.33;65.58;100549.47;5018525;28;45890;-79
2021/08/03 05:52:38;;;;;;;;;2.00;2.00;;;;;18.35;65.40;100552.78;5018100;28;46287;-77
2021/08/03 05:55:04;;;;;;;;;3.50;2.50;;;;;18.26;65.44;100543.13;5018080;28;45852;-79
2021/08/03 06:00:51;;;;;;;;;2.50;2.50;;;;;18.21;65.62;100548.09;5016047;28;45503;-76
2021/08/03 06:03:17;;;;;;;;;1.00;1.00;;;;;18.17;65.60;100554.69;5022449;28;45631;-77
2021/08/03 06:05:42;;;;;;;;;1.00;0.50;;;;;18.22;65.35;100564.84;5024651;28;45512;-78
2021/08/03 06:08:11;;;;;;;;;2.00;1.00;;;;;18.11;65.87;100546.53;5024102;28;45775;-80
2021/08/03 06:10:37;;;;;;;;;3.75;3.75;;;;;18.20;65.69;100567.63;5023857;28;45642;-77
2021/08/03 06:13:06;;;;;;;;;0.75;0.50;;;;;18.16;65.43;100562.81;5020139;28;46667;-77
2021/08/03 06:15:42;;;;;;;;;1.00;1.00;;;;;18.15;65.63;100567.28;5017014;28;45812;-82
2021/08/03 06:18:34;;;;;;;;;2.00;2.00;;;;;18.07;65.58;100561.13;4998886;28;45483;-82
2021/08/03 06:20:59;;;;;;;;;2.00;1.00;;;;;18.07;65.53;100579.69;5016362;28;45547;-78
2021/08/03 06:23:25;;;;;;;;;2.00;1.00;;;;;18.08;65.64;100582.19;5016361;28;45800;-80
2021/08/03 06:25:53;;;;;;;;;1.50;1.50;;;;;18.05;65.87;100571.88;5015950;28;45934;-78
2021/08/03 06:28:22;;;;;;;;;2.00;2.00;;;;;18.03;65.69;100577.31;5015728;28;45615;-74
2021/08/03 06:30:49;;;;;;;;;1.00;1.00;;;;;18.02;65.65;100582.81;5015825;28;45593;-77
2021/08/03 06:33:22;;;;;;;;;3.00;3.00;;;;;17.98;65.69;100576.13;5015598;28;45871;-78
2021/08/03 06:35:49;;;;;;;;;2.00;2.00;;;;;17.92;65.73;100567.00;5015677;28;46199;-78
2021/08/03 06:38:15;;;;;;;;;2.00;2.00;;;;;18.02;65.87;100588.13;5016068;28;45788;-79
2021/08/03 06:41:09;;;;;;;;;2.00;2.00;;;;;18.02;65.89;100588.13;5015823;28;45779;-78
2021/08/03 06:43:44;;;;;;;;;2.00;2.00;;;;;18.00;66.30;100590.91;4935520;28;45638;-78
2021/08/03 06:46:11;;;;;;;;;2.00;2.00;;;;;17.96;66.06;100586.09;4935251;28;45881;-78
2021/08/03 06:49:00;;;;;;;;;3.00;3.00;;;;;17.97;66.68;100585.94;4935049;28;46084;-79
2021/08/03 06:51:32;;;;;;;;;1.75;0.00;;;;;18.03;66.29;100595.88;4935422;28;45701;-78
2021/08/03 06:54:03;;;;;;;;;4.00;3.75;;;;;18.00;66.01;100590.91;4934744;28;47443;-81
2021/08/03 06:56:33;;;;;;;;;5.00;4.00;;;;;18.03;66.80;100597.69;4935168;28;46490;-77
2021/08/03 06:59:04;;;;;;;;;4.00;3.00;;;;;18.06;66.39;100593.91;4934853;28;45902;-78
2021/08/03 07:01:48;;;;;;;;;3.25;2.50;;;;;18.09;66.21;100598.91;4934913;28;45760;-79
2021/08/03 07:04:19;;;;;;;;;3.25;3.00;;;;;18.03;66.23;100587.09;4918382;28;47347;-81
2021/08/03 07:06:51;;;;;;;;;3.50;2.75;;;;;18.13;66.22;100606.41;4934473;28;45547;-80
2021/08/03 07:09:18;;;;;;;;;2.25;2.00;;;;;18.15;66.71;100612.38;4935080;28;45568;-80
2021/08/03 07:11:43;;;;;;;;;3.00;3.00;;;;;18.14;66.40;100607.25;4933038;28;45679;-80
2021/08/03 07:14:09;;;;;;;;;3.00;3.00;;;;;18.17;66.63;100607.75;4933537;28;46382;-80
2021/08/03 07:16:34;;;;;;;;;3.75;3.00;;;;;18.23;66.37;100615.06;4934632;28;45555;-78
2021/08/03 07:19:01;;;;;;;;;2.00;2.00;;;;;18.24;66.30;100613.25;4934393;28;45841;-81
2021/08/03 07:21:27;;;;;;;;;2.00;2.00;;;;;18.26;66.29;100624.53;5006591;28;45802;-84
2021/08/03 07:23:57;;;;;;;;;3.00;2.00;;;;;18.24;66.36;100616.75;5014430;28;47194;-83
2021/08/03 07:26:24;;;;;;;;;4.00;2.50;;;;;18.25;66.52;100620.19;5014419;28;46476;-85
2021/08/03 07:28:50;;;;;;;;;2.00;1.25;;;;;18.20;66.14;100607.41;5015089;28;45584;-80
2021/08/03 07:31:17;;;;;;;;;2.25;2.00;;;;;18.25;66.33;100613.06;5014933;28;45647;-82
2021/08/03 07:33:42;;;;;;;;;2.75;2.00;;;;;18.31;65.93;100625.72;5014590;28;45658;-83
2021/08/03 07:36:07;;;;;;;;;2.00;2.00;;;;;18.33;65.76;100629.03;5014741;28;46243;-77
2021/08/03 07:38:33;;;;;;;;;3.75;3.75;;;;;18.30;65.78;100604.66;5014924;28;45717;-84
2021/08/03 07:40:58;;;;;;;;;4.00;4.00;;;;;18.44;66.20;100628.75;5014905;28;45740;-79
2021/08/03 07:46:45;;;;;;;;;2.75;2.00;;;;;18.58;66.10;100626.50;5019651;28;45777;-81
2021/08/03 07:49:11;;;;;;;;;3.75;3.00;;;;;18.63;65.80;100617.09;5020784;28;45532;-83
2021/08/03 07:51:36;;;;;;;;;2.50;2.00;;;;;18.68;65.31;100617.44;5021549;28;45665;-81
2021/08/03 07:54:02;;;;;;;;;2.25;2.25;;;;;18.78;65.50;100620.81;5019645;28;46662;-80
2021/08/03 07:56:27;;;;;;;;;2.25;1.50;;;;;18.83;65.22;100623.81;5018438;28;45702;-81
2021/08/03 07:58:52;;;;;;;;;3.50;2.75;;;;;18.91;64.82;100625.63;5017110;28;45665;-81
2021/08/03 08:01:18;;;;;;;;;4.00;3.00;;;;;18.95;64.76;100613.69;5017865;28;45931;-80
2021/08/03 08:03:44;;;;;;;;;4.25;4.25;;;;;19.02;64.98;100625.31;5016526;28;46399;-82
2021/08/03 08:06:09;;;;;;;;;4.00;3.25;;;;;19.05;65.18;100629.50;5000822;28;47129;-82
2021/08/03 08:08:35;;;;;;;;;6.75;4.50;;;;;19.06;65.20;100617.84;5019687;28;45651;-79
2021/08/03 08:11:00;;;;;;;;;3.75;3.75;;;;;19.06;64.91;100615.19;5019330;28;45715;-79
2021/08/03 08:16:47;;;;;;;;;5.00;5.00;;;;;19.09;64.86;100625.50;5020213;28;45704;-79
2021/08/03 08:19:13;;;;;;;;;4.75;4.75;;;;;19.07;65.08;100622.19;5017214;28;45889;-78
2021/08/03 08:21:38;;;;;;;;;6.75;5.50;;;;;19.03;64.80;100615.53;5012045;28;45894;-78
2021/08/03 08:24:04;;;;;;;;;3.75;3.75;;;;;19.04;64.79;100609.25;5012412;28;46825;-79
2021/08/03 08:26:30;;;;;;;;;5.75;5.00;;;;;18.93;64.64;100593.63;5011246;28;46185;-82
2021/08/03 08:28:56;;;;;;;;;4.00;4.00;;;;;19.02;64.31;100604.09;5013029;28;45722;-79
2021/08/03 08:31:21;;;;;;;;;4.75;4.25;;;;;19.03;64.50;100607.56;5014369;28;45770;-83
2021/08/03 08:33:47;;;;;;;;;3.25;3.00;;;;;19.01;63.65;100605.06;5012385;28;46406;-82
2021/08/03 08:36:12;;;;;;;;;5.00;4.25;;;;;19.03;64.01;100603.09;5011709;28;45623;-80
2021/08/03 08:38:37;;;;;;;;;6.00;5.25;;;;;19.08;64.12;100605.25;5011509;28;45628;-80
2021/08/03 08:41:03;;;;;;;;;5.00;5.00;;;;;19.10;63.55;100601.44;5011547;28;45596;-83
2021/08/03 08:46:52;;;;;;;;;4.00;3.50;;;;;19.21;63.59;100605.63;5013309;28;45848;-81
2021/08/03 08:49:17;;;;;;;;;3.75;3.75;;;;;19.24;63.86;100607.94;4995665;28;45752;-80
2021/08/03 08:51:43;;;;;;;;;3.75;3.75;;;;;19.23;63.69;100601.78;4995600;28;45961;-81
2021/08/03 08:54:08;;;;;;;;;4.75;4.50;;;;;19.20;63.75;100588.84;5013438;28;45683;-81
2021/08/03 08:56:34;;;;;;;;;3.50;3.50;;;;;19.33;63.11;100612.25;4994902;28;48523;-82
2021/08/03 09:02:53;;;;;;;;;5.25;5.25;;;;;19.37;63.21;100621.56;5002157;28;45624;-78
2021/08/03 09:05:34;;;;;;;;;4.25;4.00;;;;;19.39;62.83;100618.72;4932504;28;46346;-82
2021/08/03 09:08:01;;;;;;;;;3.75;3.75;;;;;19.39;62.44;100616.06;4933047;28;46024;-79
2021/08/03 09:10:32;;;;;;;;;3.00;3.00;;;;;19.40;62.25;100617.72;4932797;28;45802;-78
2021/08/03 09:16:22;;;;;;;;;3.50;2.50;;;;;19.45;61.90;100610.13;4936055;28;45713;-81
2021/08/03 09:18:49;;;;;;;;;4.00;4.00;;;;;19.49;61.47;100606.97;4935989;28;46410;-78
2021/08/03 09:21:25;;;;;;;;;2.75;2.75;;;;;19.55;61.49;100605.47;4935798;28;45669;-78
2021/08/03 09:23:53;;;;;;;;;2.50;2.50;;;;;19.62;61.08;100617.94;4936145;28;45917;-79
2021/08/03 09:26:37;;;;;;;;;3.00;3.00;;;;;19.64;61.13;100604.47;4935731;28;47386;-80
2021/08/03 09:32:35;;;;;;;;;3.00;3.00;;;;;19.80;60.13;100601.81;4935679;28;45764;-82
2021/08/03 09:35:07;;;;;;;;;2.00;2.00;;;;;19.91;60.05;100616.56;4935579;28;45536;-81
2021/08/03 09:37:33;;;;;;;;;2.00;2.00;;;;;19.97;59.68;100614.03;4935755;28;45673;-81
2021/08/03 09:39:59;;;;;;;;;3.00;3.00;;;;;20.00;59.74;100616.38;4935978;28;46195;-78
2021/08/03 09:42:28;;;;;;;;;2.00;2.00;;;;;20.08;59.67;100615.56;4998746;28;45654;-79
2021/08/03 09:44:55;;;;;;;;;2.75;1.75;;;;;20.14;59.06;100609.53;5016809;28;45751;-80
2021/08/03 09:47:23;;;;;;;;;3.00;2.75;;;;;20.18;59.04;100616.19;5016297;28;46547;-81
2021/08/03 09:49:51;;;;;;;;;2.00;2.00;;;;;20.21;58.86;100610.50;5016643;28;45934;-81
2021/08/03 09:52:22;;;;;;;;;2.75;2.75;;;;;20.23;58.63;100608.53;5016141;28;45558;-79
2021/08/03 09:54:48;;;;;;;;;2.50;2.50;;;;;20.25;58.79;100614.47;5016610;28;45665;-77
2021/08/03 10:03:59;;;;;;;;;4.00;4.00;;;;;20.27;59.18;100615.16;5013735;28;45818;-82
2021/08/03 10:06:25;;;;;;;;;4.00;3.50;;;;;20.26;59.03;100617.97;5016065;28;45684;-81
2021/08/03 10:08:53;;;;;;;;;3.50;3.25;;;;;20.23;59.34;100613.00;5016291;28;45615;-81
2021/08/03 10:11:20;;;;;;;;;4.00;3.00;;;;;20.22;59.47;100621.97;5017856;28;46090;-82
2021/08/03 10:17:09;;;;;;;;;3.00;2.50;;;;;20.09;59.23;100602.06;5017535;28;45664;-79
2021/08/03 10:19:36;;;;;;;;;2.50;2.50;;;;;20.23;59.13;100624.47;5015898;28;45634;-78
2021/08/03 10:22:20;;;;;;;;;3.00;3.00;;;;;20.23;58.67;100616.50;5015580;28;47329;-79
2021/08/03 10:25:02;;;;;;;;;4.00;3.00;;;;;20.16;58.61;100614.69;5016509;28;45654;-79
2021/08/03 10:34:42;;;;;;;;;3.00;3.00;;;;;20.37;58.28;100599.00;5023846;28;45625;-79
2021/08/03 10:37:08;;;;;;;;;4.00;4.00;;;;;20.30;58.19;100584.69;5024088;28;45736;-79
2021/08/03 10:40:00;;;;;;;;;3.50;3.00;;;;;20.47;57.75;100591.63;5023334;28;45603;-79
2021/08/03 10:42:27;;;;;;;;;3.50;3.00;;;;;20.49;58.04;100595.81;5013275;28;46562;-79
2021/08/03 10:45:00;;;;;;;;;3.00;2.00;;;;;20.53;57.79;100597.09;5015671;28;45989;-79
2021/08/03 10:47:34;;;;;;;;;5.00;5.00;;;;;20.59;57.81;100595.59;5015502;28;45627;-79
2021/08/03 10:50:00;;;;;;;;;5.00;4.50;;;;;20.61;57.50;100611.38;5015468;28;45758;-79
2021/08/03 10:52:44;;;;;;;;;4.75;3.75;;;;;20.60;57.50;100607.91;5015044;28;45615;-78
2021/08/03 10:55:29;;;;;;;;;3.00;3.00;;;;;20.61;57.46;100606.91;5015393;28;46087;-79
2021/08/03 11:01:45;;;;;;;;;2.00;2.00;;;;;20.61;56.78;100614.88;5014934;28;45588;-79
2021/08/03 11:04:42;;;;;;;;;2.75;2.75;;;;;20.61;56.92;100617.56;5015095;28;45670;-80
2021/08/03 11:07:26;;;;;;;;;4.00;4.00;;;;;20.63;56.61;100607.53;5015168;28;46773;-79
2021/08/03 11:09:57;;;;;;;;;4.00;4.00;;;;;20.64;56.78;100622.50;5015242;28;45639;-79
2021/08/03 11:12:41;;;;;;;;;4.00;3.25;;;;;20.63;56.30;100617.34;5014778;28;45860;-79
2021/08/03 11:18:44;;;;;;;;;4.00;3.25;;;;;20.71;56.72;100623.50;5014437;28;45785;-81
2021/08/03 11:21:29;;;;;;;;;3.00;3.00;;;;;20.75;56.42;100614.13;5015044;28;45630;-79
2021/08/03 11:23:56;;;;;;;;;5.00;4.75;;;;;20.81;57.07;100607.28;5015143;28;45623;-80
2021/08/03 11:26:23;;;;;;;;;4.75;4.75;;;;;20.84;57.00;100610.41;5015120;28;45557;-80
2021/08/03 11:29:11;;;;;;;;;3.75;3.75;;;;;20.91;56.73;100608.72;5014527;28;46660;-80
2021/08/03 11:31:41;;;;;;;;;3.00;3.00;;;;;20.91;56.90;100605.22;4996759;28;45704;-80
2021/08/03 11:34:07;;;;;;;;;3.50;2.75;;;;;20.96;56.44;100608.19;4995841;28;45885;-80
2021/08/03 11:36:33;;;;;;;;;4.00;3.00;;;;;20.91;56.55;100599.91;5014699;28;46416;-80
2021/08/03 11:38:59;;;;;;;;;5.00;5.00;;;;;20.93;56.34;100604.06;5014689;28;45603;-80
2021/08/03 11:41:25;;;;;;;;;3.50;3.00;;;;;20.87;56.39;100604.75;5014643;28;45512;-79
2021/08/03 11:43:52;;;;;;;;;3.00;3.00;;;;;20.84;56.07;100597.09;5014890;28;45606;-79
2021/08/03 11:46:28;;;;;;;;;4.00;3.25;;;;;20.84;56.00;100605.09;5014723;28;46407;-80
2021/08/03 11:49:04;;;;;;;;;3.25;3.00;;;;;20.83;56.22;100610.63;5014395;28;45961;-79
2021/08/03 11:51:47;;;;;;;;;3.00;2.50;;;;;20.80;56.10;100598.47;5014425;28;45707;-79
2021/08/03 11:54:18;;;;;;;;;2.75;2.75;;;;;20.79;55.87;100591.47;5014102;28;46000;-79
2021/08/03 11:56:44;;;;;;;;;3.00;3.00;;;;;20.84;55.64;100601.59;5014497;28;46401;-80
2021/08/03 11:59:13;;;;;;;;;4.25;4.00;;;;;20.85;55.69;100606.75;5014185;28;45576;-80
2021/08/03 12:01:49;;;;;;;;;4.00;4.00;;;;;20.85;55.67;100603.25;5014320;28;45809;-80
2021/08/03 12:04:16;;;;;;;;;3.00;2.75;;;;;20.83;55.61;100608.78;5014335;28;45543;-80
2021/08/03 12:06:43;;;;;;;;;3.00;3.00;;;;;20.83;55.67;100600.78;5014384;28;45575;-80
2021/08/03 12:09:10;;;;;;;;;4.25;4.25;;;;;20.86;56.06;100604.94;5014301;28;45927;-79
2021/08/03 12:11:36;;;;;;;;;4.00;4.00;;;;;20.85;55.80;100592.59;5014263;28;45531;-78
2021/08/03 12:14:15;;;;;;;;;3.00;3.00;;;;;20.84;55.62;100582.94;5014397;28;45692;-79
2021/08/03 12:16:45;;;;;;;;;3.00;3.00;;;;;20.84;55.86;100589.09;5014197;28;45857;-79
2021/08/03 12:19:35;;;;;;;;;4.75;3.75;;;;;20.91;55.54;100586.56;5014110;28;45839;-79
2021/08/03 12:22:05;;;;;;;;;3.75;3.00;;;;;20.89;55.58;100586.75;5013564;28;45749;-79
2021/08/03 12:24:30;;;;;;;;;3.00;3.00;;;;;20.91;55.35;100590.06;5014288;28;45412;-80
2021/08/03 12:27:12;;;;;;;;;4.00;3.50;;;;;20.90;55.10;100584.91;5013849;28;45732;-78
2021/08/03 12:29:37;;;;;;;;;2.50;2.50;;;;;20.89;55.48;100594.75;5014155;28;46550;-77
2021/08/03 12:32:04;;;;;;;;;4.00;4.00;;;;;20.85;55.30;100582.78;5014208;28;45507;-78
2021/08/03 12:34:37;;;;;;;;;3.50;3.00;;;;;20.84;55.17;100588.28;5014302;28;45491;-79
2021/08/03 12:37:05;;;;;;;;;5.25;5.00;;;;;20.85;55.50;100588.09;5014344;28;46495;-78
2021/08/03 12:39:36;;;;;;;;;3.50;3.00;;;;;20.85;55.92;100585.44;4996503;28;47744;-78
2021/08/03 12:42:53;;;;;;;;;4.00;3.75;;;;;20.87;55.83;100583.44;5014221;28;45684;-79
2021/08/03 12:45:12;;;;;;;;;6.00;4.25;;;;;20.75;55.77;100562.72;5018862;28;45544;-79
2021/08/03 12:47:51;;;;;;;;;4.25;4.00;;;;;20.85;55.88;100569.47;5025412;28;45479;-79
2021/08/03 12:50:17;;;;;;;;;6.00;4.75;;;;;20.83;56.16;100570.66;5025222;28;46346;-78